createdAt,value
2019-05-09T00:04:40.972Z,0.90
2019-05-09T00:07:10.361Z,0.72
2019-05-09T00:09:39.593Z,0.60
2019-05-09T00:12:14.216Z,0.62
2019-05-09T00:14:44.607Z,0.70
2019-05-09T00:17:14.233Z,0.70
2019-05-09T00:19:45.334Z,0.62
2019-05-09T00:22:14.459Z,0.60
2019-05-09T00:24:44.815Z,0.60
2019-05-09T00:27:17.778Z,0.70
2019-05-09T00:29:50.315Z,0.60
2019-05-09T00:32:45.532Z,0.65
2019-05-09T00:35:27.670Z,0.60
2019-05-09T00:38:00.329Z,0.90
2019-05-09T00:40:31.492Z,0.80
2019-05-09T00:43:03.973Z,0.68
2019-05-09T00:46:06.470Z,0.80
2019-05-09T00:48:45.531Z,0.90
2019-05-09T00:53:44.408Z,0.60
2019-05-09T00:56:15.045Z,0.80
2019-05-09T00:58:44.217Z,0.60
2019-05-09T01:01:16.218Z,0.45
2019-05-09T01:03:45.529Z,0.70
2019-05-09T01:06:15.932Z,0.68
2019-05-09T01:08:45.584Z,0.80
2019-05-09T01:11:15.677Z,0.70
2019-05-09T01:13:46.192Z,0.98
2019-05-09T01:16:15.435Z,0.60
2019-05-09T01:18:45.685Z,0.70
2019-05-09T01:21:18.106Z,0.40
2019-05-09T01:23:50.520Z,0.82
2019-05-09T01:26:20.015Z,0.90
2019-05-09T01:28:53.854Z,0.50
2019-05-09T01:31:26.350Z,0.70
2019-05-09T01:34:09.108Z,0.70
2019-05-09T01:36:58.715Z,0.70
2019-05-09T01:39:30.010Z,0.72
2019-05-09T01:42:04.632Z,0.90
2019-05-09T01:44:35.570Z,0.90
2019-05-09T01:49:35.450Z,0.93
2019-05-09T01:52:08.356Z,1.00
2019-05-09T01:54:39.394Z,1.17
2019-05-09T01:57:09.462Z,1.00
2019-05-09T01:59:38.595Z,1.10
2019-05-09T02:02:09.060Z,1.00
2019-05-09T02:04:38.826Z,1.20
2019-05-09T02:07:08.347Z,1.30
2019-05-09T02:09:39.691Z,1.17
2019-05-09T02:12:10.049Z,1.37
2019-05-09T02:15:04.919Z,1.50
2019-05-09T02:18:01.275Z,1.60
2019-05-09T02:20:25.619Z,1.50
2019-05-09T02:23:00.481Z,1.35
2019-05-09T02:25:43.769Z,1.80
2019-05-09T02:28:11.485Z,1.62
2019-05-09T02:30:40.454Z,1.72
2019-05-09T02:33:10.162Z,1.55
2019-05-09T02:35:51.747Z,1.80
2019-05-09T02:38:11.037Z,1.10
2019-05-09T02:40:48.514Z,1.30
2019-05-09T02:43:18.662Z,1.20
2019-05-09T02:46:09.859Z,1.22
2019-05-09T02:51:09.236Z,1.05
2019-05-09T02:53:39.507Z,1.30
2019-05-09T02:56:09.452Z,1.07
2019-05-09T03:01:31.618Z,1.30
2019-05-09T03:04:04.511Z,1.45
2019-05-09T03:06:33.942Z,1.22
2019-05-09T03:09:03.640Z,1.00
2019-05-09T03:14:00.730Z,1.47
2019-05-09T03:24:21.495Z,1.60
2019-05-09T03:26:59.487Z,1.60
2019-05-09T03:29:42.103Z,1.72
2019-05-09T03:32:12.717Z,2.20
2019-05-09T03:37:11.035Z,2.17
2019-05-09T03:39:40.040Z,1.90
2019-05-09T03:42:09.120Z,1.72
2019-05-09T03:44:38.610Z,1.75
2019-05-09T03:47:20.557Z,2.83
2019-05-09T03:50:08.389Z,2.27
2019-05-09T03:52:37.795Z,2.00
2019-05-09T03:55:12.904Z,2.40
2019-05-09T03:57:47.602Z,2.27
2019-05-09T04:02:49.485Z,2.30
2019-05-09T04:05:22.400Z,2.12
2019-05-09T04:07:57.598Z,2.75
2019-05-09T04:10:28.218Z,2.60
2019-05-09T04:12:59.716Z,2.25
2019-05-09T04:17:59.320Z,2.40
2019-05-09T04:20:30.717Z,2.67
2019-05-09T04:22:59.970Z,1.90
2019-05-09T04:25:32.759Z,2.30
2019-05-09T04:28:07.466Z,2.17
2019-05-09T04:33:13.884Z,2.40
2019-05-09T04:35:44.599Z,2.47
2019-05-09T04:38:18.894Z,2.60
2019-05-09T04:40:48.932Z,2.25
2019-05-09T04:43:27.303Z,2.33
2019-05-09T04:45:57.893Z,2.10
2019-05-09T04:48:30.935Z,1.60
2019-05-09T04:51:02.059Z,1.70
2019-05-09T04:53:31.342Z,1.77
2019-05-09T04:56:17.570Z,1.62
2019-05-09T04:58:48.166Z,1.57
2019-05-09T05:01:40.088Z,1.90
2019-05-09T05:04:09.600Z,1.70
2019-05-09T05:06:40.991Z,1.37
2019-05-09T05:09:10.464Z,1.90
2019-05-09T05:11:39.493Z,2.05
2019-05-09T05:14:11.272Z,1.77
2019-05-09T05:16:40.151Z,1.60
2019-05-09T05:19:09.288Z,1.62
2019-05-09T05:21:38.282Z,1.70
2019-05-09T05:24:31.790Z,1.37
2019-05-09T05:27:01.092Z,1.70
2019-05-09T05:29:30.914Z,1.25
2019-05-09T05:32:01.928Z,1.00
2019-05-09T05:34:43.144Z,1.00
2019-05-09T05:37:12.120Z,0.90
2019-05-09T05:39:41.160Z,0.80
2019-05-09T05:42:10.101Z,1.20
2019-05-09T05:44:39.518Z,1.00
2019-05-09T05:47:29.121Z,1.12
2019-05-09T05:49:57.816Z,1.35
2019-05-09T05:52:27.793Z,1.32
2019-05-09T05:54:58.189Z,1.27
2019-05-09T05:57:28.103Z,1.35
2019-05-09T05:59:58.498Z,1.50
2019-05-09T06:02:28.214Z,1.50
2019-05-09T06:04:58.293Z,1.50
2019-05-09T06:07:28.523Z,1.30
2019-05-09T06:12:28.499Z,1.47
2019-05-09T06:14:58.279Z,1.32
2019-05-09T06:17:28.630Z,1.10
2019-05-09T06:22:28.403Z,1.40
2019-05-09T06:25:00.146Z,1.25
2019-05-09T06:27:29.587Z,1.30
2019-05-09T06:29:59.164Z,1.40
2019-05-09T06:32:28.612Z,1.30
2019-05-09T06:34:58.114Z,1.30
2019-05-09T06:37:27.841Z,1.95
2019-05-09T06:39:58.306Z,1.35
2019-05-09T06:42:28.743Z,1.30
2019-05-09T06:45:30.776Z,1.67
2019-05-09T06:48:00.456Z,1.27
2019-05-09T06:50:30.572Z,1.10
2019-05-09T06:55:29.738Z,1.60
2019-05-09T06:58:01.507Z,1.40
2019-05-09T07:00:48.819Z,1.70
2019-05-09T07:03:19.846Z,1.12
2019-05-09T07:06:00.297Z,1.45
2019-05-09T07:08:49.182Z,1.40
2019-05-09T07:11:19.184Z,1.40
2019-05-09T07:13:48.545Z,1.12
2019-05-09T07:16:18.710Z,1.00
2019-05-09T07:18:48.562Z,1.07
2019-05-09T07:23:48.051Z,1.10
2019-05-09T07:26:20.619Z,0.90
2019-05-09T07:28:50.001Z,1.12
2019-05-09T07:31:28.367Z,1.20
2019-05-09T07:34:09.482Z,0.90
2019-05-09T07:36:39.536Z,1.00
2019-05-09T07:39:09.487Z,0.80
2019-05-09T07:41:39.461Z,0.98
2019-05-09T07:44:09.502Z,0.90
2019-05-09T07:46:58.063Z,0.75
2019-05-09T07:49:28.547Z,0.88
2019-05-09T07:51:58.447Z,0.80
2019-05-09T07:54:29.471Z,0.65
2019-05-09T07:59:27.665Z,1.15
2019-05-09T08:01:58.115Z,1.70
2019-05-09T08:04:28.642Z,0.80
2019-05-09T08:09:28.254Z,0.60
2019-05-09T08:11:58.755Z,1.10
2019-05-09T08:14:28.573Z,0.98
2019-05-09T08:16:58.295Z,0.70
2019-05-09T08:19:28.100Z,0.80
2019-05-09T08:21:57.795Z,0.80
2019-05-09T08:24:27.815Z,0.98
2019-05-09T08:26:58.024Z,1.00
2019-05-09T08:29:28.251Z,0.60
2019-05-09T08:31:58.296Z,0.62
2019-05-09T08:34:28.506Z,0.80
2019-05-09T08:39:27.853Z,0.60
2019-05-09T08:41:59.291Z,0.85
2019-05-09T08:44:30.218Z,1.25
2019-05-09T08:46:59.023Z,0.88
2019-05-09T08:49:49.724Z,0.60
2019-05-09T08:52:19.895Z,0.72
2019-05-09T08:54:53.313Z,0.68
2019-05-09T08:57:22.426Z,0.57
2019-05-09T08:59:51.419Z,0.53
2019-05-09T09:02:22.352Z,0.60
2019-05-09T09:04:51.429Z,0.70
2019-05-09T09:07:20.470Z,0.78
2019-05-09T09:09:49.420Z,0.42
2019-05-09T09:12:27.257Z,0.78
2019-05-09T09:15:18.151Z,0.40
2019-05-09T09:17:49.104Z,0.75
2019-05-09T09:20:18.887Z,0.80
2019-05-09T09:22:48.212Z,0.70
2019-05-09T09:25:18.365Z,0.53
2019-05-09T09:27:50.980Z,0.68
2019-05-09T09:32:49.708Z,0.50
2019-05-09T09:37:51.856Z,0.55
2019-05-09T09:42:49.056Z,0.80
2019-05-09T09:45:18.521Z,0.50
2019-05-09T09:47:48.265Z,0.60
2019-05-09T09:50:17.837Z,0.70
2019-05-09T09:52:49.170Z,0.55
2019-05-09T09:55:18.456Z,0.57
2019-05-09T09:57:49.566Z,0.65
2019-05-09T10:01:03.183Z,0.75
2019-05-09T10:03:31.018Z,0.60
2019-05-09T10:05:59.942Z,0.60
2019-05-09T10:08:29.005Z,0.57
2019-05-09T10:10:59.131Z,0.53
2019-05-09T10:13:28.688Z,0.60
2019-05-09T10:16:25.438Z,0.50
2019-05-09T10:18:50.683Z,0.40
2019-05-09T10:23:51.711Z,0.50
2019-05-09T10:28:48.808Z,0.68
2019-05-09T10:31:17.728Z,0.75
2019-05-09T10:36:16.706Z,0.40
2019-05-09T10:38:47.849Z,0.40
2019-05-09T10:41:16.921Z,0.50
2019-05-09T10:43:59.584Z,0.50
2019-05-09T10:49:24.481Z,0.47
2019-05-09T10:51:53.581Z,0.60
2019-05-09T10:54:22.542Z,0.60
2019-05-09T10:56:51.447Z,0.57
2019-05-09T10:59:20.450Z,0.47
2019-05-09T11:01:49.846Z,0.50
2019-05-09T11:04:19.122Z,0.33
2019-05-09T11:06:48.045Z,0.35
2019-05-09T11:09:18.251Z,0.57
2019-05-09T11:11:48.362Z,0.40
2019-05-09T11:14:32.169Z,0.47
2019-05-09T11:19:20.060Z,0.50
2019-05-09T11:21:48.978Z,0.50
2019-05-09T11:24:18.726Z,0.50
2019-05-09T11:26:48.233Z,0.42
2019-05-09T11:29:18.770Z,0.40
2019-05-09T11:31:48.058Z,0.57
2019-05-09T11:34:18.832Z,0.40
2019-05-09T11:36:49.841Z,0.55
2019-05-09T11:39:35.127Z,0.33
2019-05-09T11:41:50.044Z,0.65
2019-05-09T11:44:18.959Z,0.45
2019-05-09T11:46:48.013Z,0.50
2019-05-09T11:49:18.010Z,0.40
2019-05-09T11:51:48.230Z,0.28
2019-05-09T11:54:19.470Z,0.65
2019-05-09T11:56:48.409Z,0.45
2019-05-09T11:59:18.912Z,0.40
2019-05-09T12:01:48.334Z,0.78
2019-05-09T12:04:18.713Z,0.53
2019-05-09T12:06:49.349Z,0.42
2019-05-09T12:09:18.702Z,0.62
2019-05-09T12:14:17.560Z,0.90
2019-05-09T12:16:48.030Z,0.80
2019-05-09T12:19:17.987Z,0.98
2019-05-09T12:21:48.288Z,0.55
2019-05-09T12:26:48.272Z,0.62
2019-05-09T12:31:48.770Z,0.60
2019-05-09T12:36:49.489Z,0.62
2019-05-09T12:39:19.120Z,0.40
2019-05-09T12:41:48.658Z,0.30
2019-05-09T12:44:18.468Z,0.50
2019-05-09T12:51:48.740Z,0.50
2019-05-09T12:54:18.998Z,0.40
2019-05-09T12:56:48.829Z,0.60
2019-05-09T12:59:18.739Z,0.53
2019-05-09T13:03:13.106Z,0.55
2019-05-09T13:05:42.101Z,0.40
2019-05-09T13:08:11.587Z,0.40
2019-05-09T13:10:41.410Z,0.50
2019-05-09T13:13:10.955Z,0.50
2019-05-09T13:15:48.960Z,0.47
2019-05-09T13:20:48.736Z,0.53
2019-05-09T13:23:18.051Z,0.68
2019-05-09T13:25:50.354Z,0.40
2019-05-09T13:28:18.471Z,0.70
2019-05-09T13:30:48.889Z,0.70
2019-05-09T13:33:18.921Z,0.68
2019-05-09T13:35:48.732Z,0.60
2019-05-09T13:38:18.129Z,0.70
2019-05-09T13:40:53.429Z,0.68
2019-05-09T13:43:22.883Z,0.70
2019-05-09T13:45:54.284Z,0.82
2019-05-09T13:48:37.029Z,0.70
2019-05-09T13:50:54.043Z,0.78
2019-05-09T13:53:24.926Z,0.70
2019-05-09T13:55:58.207Z,0.70
2019-05-09T13:58:30.140Z,0.65
2019-05-09T14:01:02.580Z,0.60
2019-05-09T14:03:31.641Z,0.60
2019-05-09T14:08:31.297Z,0.57
2019-05-09T14:11:00.568Z,0.85
2019-05-09T14:13:31.266Z,0.70
2019-05-09T14:16:15.650Z,0.70
2019-05-09T14:18:38.416Z,0.90
2019-05-09T14:21:09.688Z,0.70
2019-05-09T14:24:19.328Z,0.57
2019-05-09T14:26:48.794Z,0.60
2019-05-09T14:29:21.022Z,0.60
2019-05-09T14:31:50.111Z,0.60
2019-05-09T14:34:19.879Z,0.60
2019-05-09T14:36:49.665Z,0.90
2019-05-09T14:39:19.540Z,0.47
2019-05-09T14:41:52.142Z,0.65
2019-05-09T14:44:21.782Z,0.78
2019-05-09T14:49:21.499Z,0.70
2019-05-09T14:51:51.553Z,0.80
2019-05-09T14:54:21.520Z,0.60
2019-05-09T14:56:54.296Z,0.50
2019-05-09T14:59:28.608Z,0.70
2019-05-09T15:02:01.033Z,0.70
2019-05-09T15:04:33.744Z,0.42
2019-05-09T15:07:20.349Z,0.53
2019-05-09T15:12:28.519Z,0.57
2019-05-09T15:15:12.418Z,0.60
2019-05-09T15:20:14.090Z,0.53
2019-05-09T15:22:58.836Z,0.90
2019-05-09T15:27:09.987Z,0.82
2019-05-09T15:29:45.449Z,0.60
2019-05-09T15:32:21.361Z,0.62
2019-05-09T15:34:51.121Z,0.60
2019-05-09T15:37:21.018Z,0.60
2019-05-09T15:39:50.185Z,0.70
2019-05-09T15:42:26.185Z,0.62
2019-05-09T15:45:00.457Z,0.80
2019-05-09T15:47:33.433Z,0.40
2019-05-09T15:50:18.820Z,0.57
2019-05-09T15:52:40.521Z,0.70
2019-05-09T15:55:09.829Z,0.70
2019-05-09T15:57:40.942Z,0.70
2019-05-09T16:00:12.138Z,0.80
2019-05-09T16:02:42.816Z,0.82
2019-05-09T16:05:14.307Z,0.70
2019-05-09T16:07:44.423Z,0.40
2019-05-09T16:10:14.707Z,0.60
2019-05-09T16:12:44.201Z,0.50
2019-05-09T16:15:14.971Z,0.40
2019-05-09T16:17:48.421Z,0.50
2019-05-09T16:20:36.001Z,0.60
2019-05-09T16:22:50.593Z,0.45
2019-05-09T16:25:19.817Z,0.80
2019-05-09T16:27:49.015Z,0.50
2019-05-09T16:30:18.392Z,0.53
2019-05-09T16:32:48.140Z,0.50
2019-05-09T16:35:18.183Z,0.50
2019-05-09T16:37:58.369Z,0.50
2019-05-09T16:40:21.748Z,0.50
2019-05-09T16:45:20.510Z,0.37
2019-05-09T16:47:52.497Z,0.42
2019-05-09T16:50:59.398Z,0.40
2019-05-09T16:53:18.398Z,0.50
2019-05-09T16:55:47.309Z,0.40
2019-05-09T16:58:18.596Z,0.40
2019-05-09T17:00:51.127Z,0.50
2019-05-09T17:03:23.290Z,0.57
2019-05-09T17:05:52.290Z,0.53
2019-05-09T17:08:21.689Z,0.28
2019-05-09T17:13:19.736Z,0.40
2019-05-09T17:15:52.008Z,0.40
2019-05-09T17:18:23.208Z,0.50
2019-05-09T17:21:24.302Z,0.40
2019-05-09T17:23:52.583Z,0.40
2019-05-09T17:28:56.555Z,0.50
2019-05-09T17:31:27.581Z,0.50
2019-05-09T17:33:57.954Z,0.42
2019-05-09T17:36:28.588Z,0.53
2019-05-09T17:38:58.558Z,0.60
2019-05-09T17:41:28.450Z,0.50
2019-05-09T17:43:58.273Z,0.70
2019-05-09T17:46:27.747Z,0.50
2019-05-09T17:48:58.337Z,0.55
2019-05-09T17:51:35.684Z,0.55
2019-05-09T17:54:01.548Z,0.60
2019-05-09T17:56:30.602Z,0.90
2019-05-09T18:01:29.047Z,0.80
2019-05-09T18:03:59.772Z,0.70
2019-05-09T18:06:29.624Z,0.50
2019-05-09T18:09:03.443Z,0.60
2019-05-09T18:11:32.466Z,0.80
2019-05-09T18:14:01.523Z,1.02
2019-05-09T18:16:30.548Z,0.78
2019-05-09T18:19:01.707Z,0.62
2019-05-09T18:22:48.132Z,0.88
2019-05-09T18:25:22.634Z,0.80
2019-05-09T18:27:51.459Z,0.70
2019-05-09T18:30:21.282Z,1.10
2019-05-09T18:33:12.631Z,0.72
2019-05-09T18:38:23.974Z,0.90
2019-05-09T18:40:57.863Z,0.88
2019-05-09T18:43:27.692Z,0.88
2019-05-09T18:45:57.756Z,0.70
2019-05-09T18:48:27.953Z,0.85
2019-05-09T18:51:04.317Z,0.80
2019-05-09T18:53:33.862Z,1.30
2019-05-09T18:56:04.892Z,1.00
2019-05-09T18:58:35.997Z,0.85
2019-05-09T19:01:04.996Z,0.60
2019-05-09T19:03:33.957Z,0.80
2019-05-09T19:06:02.988Z,1.00
2019-05-09T19:08:31.979Z,1.27
2019-05-09T19:11:01.664Z,1.00
2019-05-09T19:13:30.945Z,1.32
2019-05-09T19:16:28.564Z,1.05
2019-05-09T19:19:20.914Z,1.60
2019-05-09T19:21:53.640Z,1.12
2019-05-09T19:26:51.756Z,0.82
2019-05-09T19:31:53.619Z,1.27
2019-05-09T19:34:23.311Z,1.50
2019-05-09T19:36:52.589Z,1.15
2019-05-09T19:39:58.108Z,0.93
2019-05-09T19:42:31.165Z,0.65
2019-05-09T19:45:02.596Z,1.20
2019-05-09T19:47:35.074Z,1.05
2019-05-09T19:50:05.790Z,1.47
2019-05-09T19:52:38.432Z,1.22
2019-05-09T19:55:08.186Z,0.60
2019-05-09T19:57:39.777Z,1.10
2019-05-09T20:00:14.394Z,1.00
2019-05-09T20:02:44.605Z,0.70
2019-05-09T20:07:44.019Z,0.88
2019-05-09T20:10:32.512Z,0.72
2019-05-09T20:13:24.159Z,0.78
2019-05-09T20:15:53.523Z,1.00
2019-05-09T20:18:23.585Z,0.60
2019-05-09T20:20:52.831Z,0.90
2019-05-09T20:23:22.436Z,0.82
2019-05-09T20:25:51.608Z,0.80
2019-05-09T20:30:30.938Z,0.80
2019-05-09T20:33:00.342Z,0.88
2019-05-09T20:35:29.579Z,0.57
2019-05-09T20:37:58.722Z,1.15
2019-05-09T20:42:56.077Z,0.93
2019-05-09T20:45:25.526Z,0.60
2019-05-09T20:47:54.570Z,0.50
2019-05-09T20:50:23.431Z,0.70
2019-05-09T20:53:00.857Z,0.80
2019-05-09T20:55:23.415Z,0.80
2019-05-09T20:57:52.439Z,1.00
2019-05-09T21:00:21.755Z,0.70
2019-05-09T21:02:50.918Z,1.00
2019-05-09T21:05:19.948Z,0.88
2019-05-09T21:07:48.899Z,1.00
2019-05-09T21:10:18.298Z,0.80
2019-05-09T21:12:47.133Z,0.80
2019-05-09T21:15:17.078Z,0.68
2019-05-09T21:17:46.066Z,0.78
2019-05-09T21:20:16.049Z,1.00
2019-05-09T21:22:45.599Z,0.62
2019-05-09T21:25:16.118Z,0.80
2019-05-09T21:27:46.778Z,0.70
2019-05-09T21:32:45.607Z,1.40
2019-05-09T21:35:15.614Z,1.30
2019-05-09T21:37:45.124Z,1.17
2019-05-09T21:40:15.305Z,0.68
2019-05-09T21:42:44.722Z,0.98
2019-05-09T21:50:14.706Z,1.05
2019-05-09T21:55:15.053Z,0.75
2019-05-09T21:57:45.300Z,1.40
2019-05-09T22:00:25.033Z,1.05
2019-05-09T22:02:55.948Z,1.00
2019-05-09T22:05:25.320Z,0.80
2019-05-09T22:07:54.414Z,0.80
2019-05-09T22:10:23.739Z,0.90
2019-05-09T22:12:52.597Z,0.70
2019-05-09T22:15:21.573Z,1.05
2019-05-09T22:17:51.573Z,0.82
2019-05-09T22:20:21.118Z,0.70
2019-05-09T22:22:49.926Z,0.80
2019-05-09T22:25:19.104Z,1.05
2019-05-09T22:27:48.021Z,1.10
2019-05-09T22:30:17.731Z,0.95
2019-05-09T22:35:15.725Z,0.88
2019-05-09T22:40:15.931Z,0.80
2019-05-09T22:42:46.491Z,0.80
2019-05-09T22:45:16.163Z,1.50
2019-05-09T22:47:46.038Z,0.80
2019-05-09T22:50:15.712Z,1.00
2019-05-09T22:55:14.506Z,1.10
2019-05-09T22:57:46.467Z,0.65
2019-05-09T23:00:16.397Z,0.85
2019-05-09T23:02:46.087Z,0.80
2019-05-09T23:05:15.937Z,0.78
2019-05-09T23:07:45.565Z,0.88
2019-05-09T23:10:16.171Z,0.80
2019-05-09T23:12:45.781Z,0.65
2019-05-09T23:15:17.084Z,0.70
2019-05-09T23:17:46.602Z,0.82
2019-05-09T23:20:34.958Z,0.90
2019-05-09T23:23:24.508Z,0.90
2019-05-09T23:25:53.398Z,0.60
2019-05-09T23:28:22.674Z,1.00
2019-05-09T23:30:54.107Z,0.80
2019-05-09T23:33:24.846Z,0.70
2019-05-09T23:35:54.063Z,0.85
2019-05-09T23:38:23.010Z,0.80
2019-05-09T23:40:51.953Z,1.07
2019-05-09T23:43:20.955Z,0.85
2019-05-09T23:45:50.046Z,0.90
2019-05-09T23:48:19.052Z,0.70
2019-05-09T23:50:48.125Z,0.88
2019-05-09T23:53:30.905Z,0.88
2019-05-09T23:56:18.758Z,0.85
